sensor_id;sensor_type;location;lat;lon;timestamp;temperature;humidity
70928;SHT31;58587;53.034;18.576;2023-03-14T11:26:36;12.91;73.50
70928;SHT31;58587;53.034;18.576;2023-03-14T11:31:46;12.88;72.91
70928;SHT31;58587;53.034;18.576;2023-03-14T11:34:38;12.86;72.96
70928;SHT31;58587;53.034;18.576;2023-03-14T11:37:21;12.83;73.25
70928;SHT31;58587;53.034;18.576;2023-03-14T11:39:55;12.85;72.56
70928;SHT31;58587;53.034;18.576;2023-03-14T11:42:21;12.82;73.03
70928;SHT31;58587;53.034;18.576;2023-03-14T11:44:49;12.73;73.86
70928;SHT31;58587;53.034;18.576;2023-03-14T11:47:23;12.75;73.40
70928;SHT31;58587;53.034;18.576;2023-03-14T11:52:51;12.82;73.33
70928;SHT31;58587;53.034;18.576;2023-03-14T11:55:22;12.86;73.09
70928;SHT31;58587;53.034;18.576;2023-03-14T11:57:52;12.88;73.62
70928;SHT31;58587;53.034;18.576;2023-03-14T12:00:23;12.91;73.15
70928;SHT31;58587;53.034;18.576;2023-03-14T12:11:02;13.12;72.05
70928;SHT31;58587;53.034;18.576;2023-03-14T12:13:32;13.16;71.65
70928;SHT31;58587;53.034;18.576;2023-03-14T12:16:00;13.13;71.76
70928;SHT31;58587;53.034;18.576;2023-03-14T12:18:29;13.13;71.65
70928;SHT31;58587;53.034;18.576;2023-03-14T12:21:01;13.16;71.81
70928;SHT31;58587;53.034;18.576;2023-03-14T12:23:36;13.23;71.29
70928;SHT31;58587;53.034;18.576;2023-03-14T12:28:37;13.22;71.22
70928;SHT31;58587;53.034;18.576;2023-03-14T12:34:04;13.22;71.34
70928;SHT31;58587;53.034;18.576;2023-03-14T12:44:41;13.20;71.10
70928;SHT31;58587;53.034;18.576;2023-03-14T12:49:42;13.19;72.48
70928;SHT31;58587;53.034;18.576;2023-03-14T12:52:22;13.23;72.71
70928;SHT31;58587;53.034;18.576;2023-03-14T12:55:09;13.26;72.37
70928;SHT31;58587;53.034;18.576;2023-03-14T13:00:18;13.71;71.16
70928;SHT31;58587;53.034;18.576;2023-03-14T13:02:46;14.09;70.29
70928;SHT31;58587;53.034;18.576;2023-03-14T13:05:26;14.38;68.93
70928;SHT31;58587;53.034;18.576;2023-03-14T13:10:30;14.51;68.22
70928;SHT31;58587;53.034;18.576;2023-03-14T13:13:23;14.42;68.79
70928;SHT31;58587;53.034;18.576;2023-03-14T13:15:55;14.28;68.81
70928;SHT31;58587;53.034;18.576;2023-03-14T13:20:55;14.08;69.25
70928;SHT31;58587;53.034;18.576;2023-03-14T13:23:27;14.11;69.36
70928;SHT31;58587;53.034;18.576;2023-03-14T13:25:53;14.08;69.20
70928;SHT31;58587;53.034;18.576;2023-03-14T13:28:19;14.14;70.08
70928;SHT31;58587;53.034;18.576;2023-03-14T13:30:47;14.08;69.47
70928;SHT31;58587;53.034;18.576;2023-03-14T13:33:21;14.01;69.59
70928;SHT31;58587;53.034;18.576;2023-03-14T13:36:05;14.02;70.05
70928;SHT31;58587;53.034;18.576;2023-03-14T13:38:35;13.91;69.76
70928;SHT31;58587;53.034;18.576;2023-03-14T13:41:07;13.89;70.05
70928;SHT31;58587;53.034;18.576;2023-03-14T13:43:36;14.04;69.99
70928;SHT31;58587;53.034;18.576;2023-03-14T13:46:06;14.31;68.84
70928;SHT31;58587;53.034;18.576;2023-03-14T13:48:35;14.46;68.61
70928;SHT31;58587;53.034;18.576;2023-03-14T13:51:09;15.35;65.13
70928;SHT31;58587;53.034;18.576;2023-03-14T13:53:49;15.74;64.81
70928;SHT31;58587;53.034;18.576;2023-03-14T13:56:17;15.50;64.73
70928;SHT31;58587;53.034;18.576;2023-03-14T13:58:42;15.19;64.77
70928;SHT31;58587;53.034;18.576;2023-03-14T14:01:15;14.93;65.04
70928;SHT31;58587;53.034;18.576;2023-03-14T14:03:44;14.73;65.99
70928;SHT31;58587;53.034;18.576;2023-03-14T14:06:19;14.63;66.46
70928;SHT31;58587;53.034;18.576;2023-03-14T14:08:46;14.56;66.51
70928;SHT31;58587;53.034;18.576;2023-03-14T14:11:46;14.39;66.94
70928;SHT31;58587;53.034;18.576;2023-03-14T14:14:21;14.22;67.48
70928;SHT31;58587;53.034;18.576;2023-03-14T14:16:49;14.12;67.80
70928;SHT31;58587;53.034;18.576;2023-03-14T14:19:16;14.04;67.70
70928;SHT31;58587;53.034;18.576;2023-03-14T14:21:42;14.00;67.28
70928;SHT31;58587;53.034;18.576;2023-03-14T14:24:12;13.95;67.98
70928;SHT31;58587;53.034;18.576;2023-03-14T14:26:47;13.92;67.93
70928;SHT31;58587;53.034;18.576;2023-03-14T14:29:27;13.88;68.40
70928;SHT31;58587;53.034;18.576;2023-03-14T14:32:19;13.81;68.59
70928;SHT31;58587;53.034;18.576;2023-03-14T14:34:58;13.79;69.23
70928;SHT31;58587;53.034;18.576;2023-03-14T14:37:52;13.71;69.46
70928;SHT31;58587;53.034;18.576;2023-03-14T14:40:20;13.67;69.34
70928;SHT31;58587;53.034;18.576;2023-03-14T14:42:47;13.70;69.28
70928;SHT31;58587;53.034;18.576;2023-03-14T14:45:16;13.71;69.44
70928;SHT31;58587;53.034;18.576;2023-03-14T14:47:51;13.74;69.39
70928;SHT31;58587;53.034;18.576;2023-03-14T14:53:02;13.95;68.38
70928;SHT31;58587;53.034;18.576;2023-03-14T14:55:34;14.24;66.73
70928;SHT31;58587;53.034;18.576;2023-03-14T14:58:14;14.43;65.95
70928;SHT31;58587;53.034;18.576;2023-03-14T15:03:18;14.52;65.29
70928;SHT31;58587;53.034;18.576;2023-03-14T15:05:44;14.49;65.41
70928;SHT31;58587;53.034;18.576;2023-03-14T15:08:10;14.38;65.92
70928;SHT31;58587;53.034;18.576;2023-03-14T15:10:36;14.26;65.92
70928;SHT31;58587;53.034;18.576;2023-03-14T15:13:01;14.25;66.11
70928;SHT31;58587;53.034;18.576;2023-03-14T15:15:30;14.14;66.23
70928;SHT31;58587;53.034;18.576;2023-03-14T15:17:56;14.08;66.90
70928;SHT31;58587;53.034;18.576;2023-03-14T15:20:22;14.02;66.98
70928;SHT31;58587;53.034;18.576;2023-03-14T15:22:50;13.95;67.12
70928;SHT31;58587;53.034;18.576;2023-03-14T15:25:16;13.88;67.38
70928;SHT31;58587;53.034;18.576;2023-03-14T15:27:41;13.82;67.60
70928;SHT31;58587;53.034;18.576;2023-03-14T15:30:13;13.75;67.97
70928;SHT31;58587;53.034;18.576;2023-03-14T15:32:39;13.68;68.46
70928;SHT31;58587;53.034;18.576;2023-03-14T15:35:05;13.64;68.38
70928;SHT31;58587;53.034;18.576;2023-03-14T15:37:30;13.61;68.62
70928;SHT31;58587;53.034;18.576;2023-03-14T15:39:56;13.58;68.63
70928;SHT31;58587;53.034;18.576;2023-03-14T15:42:23;13.54;68.80
70928;SHT31;58587;53.034;18.576;2023-03-14T15:44:49;13.47;68.78
70928;SHT31;58587;53.034;18.576;2023-03-14T15:47:14;13.43;69.43
70928;SHT31;58587;53.034;18.576;2023-03-14T15:49:39;13.42;69.38
70928;SHT31;58587;53.034;18.576;2023-03-14T15:52:05;13.33;70.11
70928;SHT31;58587;53.034;18.576;2023-03-14T15:54:32;13.33;69.64
70928;SHT31;58587;53.034;18.576;2023-03-14T15:56:58;13.30;69.73
70928;SHT31;58587;53.034;18.576;2023-03-14T15:59:24;13.30;69.65
70928;SHT31;58587;53.034;18.576;2023-03-14T16:01:49;13.27;70.09
70928;SHT31;58587;53.034;18.576;2023-03-14T16:04:15;13.33;69.52
70928;SHT31;58587;53.034;18.576;2023-03-14T16:06:40;13.32;69.80
70928;SHT31;58587;53.034;18.576;2023-03-14T16:09:06;13.35;69.61
70928;SHT31;58587;53.034;18.576;2023-03-14T16:11:32;13.30;69.98
70928;SHT31;58587;53.034;18.576;2023-03-14T16:13:58;13.24;70.19
70928;SHT31;58587;53.034;18.576;2023-03-14T16:16:23;13.22;70.29
70928;SHT31;58587;53.034;18.576;2023-03-14T16:18:48;13.22;69.85
70928;SHT31;58587;53.034;18.576;2023-03-14T16:21:18;13.19;70.41
70928;SHT31;58587;53.034;18.576;2023-03-14T16:23:44;13.17;69.98
70928;SHT31;58587;53.034;18.576;2023-03-14T16:26:12;13.12;70.47
70928;SHT31;58587;53.034;18.576;2023-03-14T16:28:38;13.10;70.49
70928;SHT31;58587;53.034;18.576;2023-03-14T16:31:07;13.09;70.57
70928;SHT31;58587;53.034;18.576;2023-03-14T16:33:33;13.05;70.84
70928;SHT31;58587;53.034;18.576;2023-03-14T16:36:01;13.02;70.90
70928;SHT31;58587;53.034;18.576;2023-03-14T16:38:31;12.95;71.31
70928;SHT31;58587;53.034;18.576;2023-03-14T16:41:02;12.88;71.63
70928;SHT31;58587;53.034;18.576;2023-03-14T16:43:28;12.86;71.87
70928;SHT31;58587;53.034;18.576;2023-03-14T16:45:56;12.78;72.10
70928;SHT31;58587;53.034;18.576;2023-03-14T16:48:22;12.73;72.29
70928;SHT31;58587;53.034;18.576;2023-03-14T16:50:49;12.66;72.63
70928;SHT31;58587;53.034;18.576;2023-03-14T16:53:15;12.66;72.24
70928;SHT31;58587;53.034;18.576;2023-03-14T16:55:41;12.63;72.34
70928;SHT31;58587;53.034;18.576;2023-03-14T16:58:07;12.52;72.55
70928;SHT31;58587;53.034;18.576;2023-03-14T17:00:32;12.49;72.10
70928;SHT31;58587;53.034;18.576;2023-03-14T17:02:57;12.52;71.59
70928;SHT31;58587;53.034;18.576;2023-03-14T17:05:22;12.48;71.93
70928;SHT31;58587;53.034;18.576;2023-03-14T17:07:49;12.49;71.45
70928;SHT31;58587;53.034;18.576;2023-03-14T17:10:14;12.48;71.35
70928;SHT31;58587;53.034;18.576;2023-03-14T17:12:40;12.41;71.58
70928;SHT31;58587;53.034;18.576;2023-03-14T17:15:05;12.35;71.55
70928;SHT31;58587;53.034;18.576;2023-03-14T17:17:31;12.30;71.30
70928;SHT31;58587;53.034;18.576;2023-03-14T17:19:56;12.31;71.02
70928;SHT31;58587;53.034;18.576;2023-03-14T17:22:21;12.28;70.81
70928;SHT31;58587;53.034;18.576;2023-03-14T17:24:47;12.17;71.03
70928;SHT31;58587;53.034;18.576;2023-03-14T17:27:12;12.07;71.44
70928;SHT31;58587;53.034;18.576;2023-03-14T17:29:42;11.98;71.57
70928;SHT31;58587;53.034;18.576;2023-03-14T17:32:08;11.90;71.69
70928;SHT31;58587;53.034;18.576;2023-03-14T17:34:34;11.81;71.85
70928;SHT31;58587;53.034;18.576;2023-03-14T17:36:59;11.71;71.92
70928;SHT31;58587;53.034;18.576;2023-03-14T17:39:24;11.63;71.99
70928;SHT31;58587;53.034;18.576;2023-03-14T17:41:49;11.57;72.27
70928;SHT31;58587;53.034;18.576;2023-03-14T17:44:15;11.46;72.88
70928;SHT31;58587;53.034;18.576;2023-03-14T17:46:40;11.39;72.95
70928;SHT31;58587;53.034;18.576;2023-03-14T17:49:05;11.33;73.19
70928;SHT31;58587;53.034;18.576;2023-03-14T17:51:31;11.25;73.94
70928;SHT31;58587;53.034;18.576;2023-03-14T17:53:56;11.16;74.34
70928;SHT31;58587;53.034;18.576;2023-03-14T17:56:22;11.14;75.14
70928;SHT31;58587;53.034;18.576;2023-03-14T17:58:47;11.08;75.72
70928;SHT31;58587;53.034;18.576;2023-03-14T18:01:15;11.05;76.03
70928;SHT31;58587;53.034;18.576;2023-03-14T18:03:41;10.99;76.43
70928;SHT31;58587;53.034;18.576;2023-03-14T18:06:08;10.94;77.58
70928;SHT31;58587;53.034;18.576;2023-03-14T18:08:36;10.94;77.80
70928;SHT31;58587;53.034;18.576;2023-03-14T18:11:01;10.91;78.41
70928;SHT31;58587;53.034;18.576;2023-03-14T18:13:26;10.86;79.32
70928;SHT31;58587;53.034;18.576;2023-03-14T18:15:52;10.84;79.72
70928;SHT31;58587;53.034;18.576;2023-03-14T18:18:17;10.85;79.98
70928;SHT31;58587;53.034;18.576;2023-03-14T18:20:51;10.86;80.31
70928;SHT31;58587;53.034;18.576;2023-03-14T18:23:17;10.86;80.68
70928;SHT31;58587;53.034;18.576;2023-03-14T18:25:43;10.89;80.78
70928;SHT31;58587;53.034;18.576;2023-03-14T18:28:08;10.84;80.84
70928;SHT31;58587;53.034;18.576;2023-03-14T18:30:33;10.88;80.84
70928;SHT31;58587;53.034;18.576;2023-03-14T18:32:59;10.91;80.67
70928;SHT31;58587;53.034;18.576;2023-03-14T18:35:24;10.91;80.55
70928;SHT31;58587;53.034;18.576;2023-03-14T18:37:49;10.91;80.19
70928;SHT31;58587;53.034;18.576;2023-03-14T18:40:15;10.98;79.95
70928;SHT31;58587;53.034;18.576;2023-03-14T18:42:42;10.96;79.96
70928;SHT31;58587;53.034;18.576;2023-03-14T18:45:08;10.99;79.89
70928;SHT31;58587;53.034;18.576;2023-03-14T18:47:34;10.95;79.74
70928;SHT31;58587;53.034;18.576;2023-03-14T18:50:02;10.98;79.57
70928;SHT31;58587;53.034;18.576;2023-03-14T18:52:27;10.98;79.52
70928;SHT31;58587;53.034;18.576;2023-03-14T18:54:53;10.98;79.33
70928;SHT31;58587;53.034;18.576;2023-03-14T18:57:18;11.04;79.23
70928;SHT31;58587;53.034;18.576;2023-03-14T18:59:44;10.99;79.23
70928;SHT31;58587;53.034;18.576;2023-03-14T19:02:09;10.99;79.34
70928;SHT31;58587;53.034;18.576;2023-03-14T19:04:34;10.99;79.10
70928;SHT31;58587;53.034;18.576;2023-03-14T19:07:00;10.96;78.95
70928;SHT31;58587;53.034;18.576;2023-03-14T19:09:26;10.98;79.00
70928;SHT31;58587;53.034;18.576;2023-03-14T19:11:51;10.95;78.95
70928;SHT31;58587;53.034;18.576;2023-03-14T19:14:16;10.98;80.14
70928;SHT31;58587;53.034;18.576;2023-03-14T19:16:44;10.91;80.99
70928;SHT31;58587;53.034;18.576;2023-03-14T19:19:09;10.84;82.09
70928;SHT31;58587;53.034;18.576;2023-03-14T19:21:35;10.78;82.09
70928;SHT31;58587;53.034;18.576;2023-03-14T19:24:02;10.78;82.38
70928;SHT31;58587;53.034;18.576;2023-03-14T19:26:28;10.75;82.36
70928;SHT31;58587;53.034;18.576;2023-03-14T19:28:55;10.78;81.76
70928;SHT31;58587;53.034;18.576;2023-03-14T19:31:21;10.71;81.68
70928;SHT31;58587;53.034;18.576;2023-03-14T19:33:46;10.68;81.62
70928;SHT31;58587;53.034;18.576;2023-03-14T19:36:23;10.68;81.30
70928;SHT31;58587;53.034;18.576;2023-03-14T19:38:49;10.68;80.74
70928;SHT31;58587;53.034;18.576;2023-03-14T19:41:15;10.72;80.66
70928;SHT31;58587;53.034;18.576;2023-03-14T19:43:40;10.75;80.41
70928;SHT31;58587;53.034;18.576;2023-03-14T19:46:06;10.79;80.56
70928;SHT31;58587;53.034;18.576;2023-03-14T19:48:31;10.75;81.01
70928;SHT31;58587;53.034;18.576;2023-03-14T19:51:00;10.68;81.99
70928;SHT31;58587;53.034;18.576;2023-03-14T19:53:26;10.64;82.56
70928;SHT31;58587;53.034;18.576;2023-03-14T19:55:52;10.58;83.00
70928;SHT31;58587;53.034;18.576;2023-03-14T19:58:17;10.57;83.57
70928;SHT31;58587;53.034;18.576;2023-03-14T20:00:42;10.50;84.12
70928;SHT31;58587;53.034;18.576;2023-03-14T20:03:09;10.44;84.25
70928;SHT31;58587;53.034;18.576;2023-03-14T20:05:38;10.45;84.38
70928;SHT31;58587;53.034;18.576;2023-03-14T20:08:03;10.36;84.51
70928;SHT31;58587;53.034;18.576;2023-03-14T20:10:29;10.30;84.99
70928;SHT31;58587;53.034;18.576;2023-03-14T20:12:55;10.34;84.76
70928;SHT31;58587;53.034;18.576;2023-03-14T20:15:22;10.31;85.03
70928;SHT31;58587;53.034;18.576;2023-03-14T20:17:49;10.29;85.00
70928;SHT31;58587;53.034;18.576;2023-03-14T20:20:16;10.27;85.30
70928;SHT31;58587;53.034;18.576;2023-03-14T20:22:43;10.25;85.45
70928;SHT31;58587;53.034;18.576;2023-03-14T20:25:10;10.23;85.42
70928;SHT31;58587;53.034;18.576;2023-03-14T20:27:37;10.24;85.31
70928;SHT31;58587;53.034;18.576;2023-03-14T20:30:05;10.24;85.24
70928;SHT31;58587;53.034;18.576;2023-03-14T20:32:32;10.21;85.33
70928;SHT31;58587;53.034;18.576;2023-03-14T20:34:58;10.20;85.10
70928;SHT31;58587;53.034;18.576;2023-03-14T20:37:24;10.17;85.19
70928;SHT31;58587;53.034;18.576;2023-03-14T20:39:49;10.20;84.98
70928;SHT31;58587;53.034;18.576;2023-03-14T20:42:15;10.17;84.85
70928;SHT31;58587;53.034;18.576;2023-03-14T20:44:42;10.16;84.86
70928;SHT31;58587;53.034;18.576;2023-03-14T20:47:07;10.16;85.08
70928;SHT31;58587;53.034;18.576;2023-03-14T20:49:33;10.13;84.86
70928;SHT31;58587;53.034;18.576;2023-03-14T20:51:58;10.10;85.19
70928;SHT31;58587;53.034;18.576;2023-03-14T20:54:23;10.09;85.12
70928;SHT31;58587;53.034;18.576;2023-03-14T20:56:49;10.03;85.39
70928;SHT31;58587;53.034;18.576;2023-03-14T20:59:15;9.96;85.89
70928;SHT31;58587;53.034;18.576;2023-03-14T21:01:40;9.92;86.65
70928;SHT31;58587;53.034;18.576;2023-03-14T21:04:05;9.82;86.29
70928;SHT31;58587;53.034;18.576;2023-03-14T21:06:31;9.38;83.94
70928;SHT31;58587;53.034;18.576;2023-03-14T21:08:57;9.21;82.67
70928;SHT31;58587;53.034;18.576;2023-03-14T21:11:23;8.25;81.90
70928;SHT31;58587;53.034;18.576;2023-03-14T21:13:48;7.79;82.05
70928;SHT31;58587;53.034;18.576;2023-03-14T21:16:14;7.21;82.71
70928;SHT31;58587;53.034;18.576;2023-03-14T21:18:39;6.95;83.50
70928;SHT31;58587;53.034;18.576;2023-03-14T21:21:05;6.77;85.23
70928;SHT31;58587;53.034;18.576;2023-03-14T21:23:30;6.56;85.59
70928;SHT31;58587;53.034;18.576;2023-03-14T21:25:58;6.20;84.93
70928;SHT31;58587;53.034;18.576;2023-03-14T21:28:24;5.80;84.78
70928;SHT31;58587;53.034;18.576;2023-03-14T21:30:49;5.70;84.35
70928;SHT31;58587;53.034;18.576;2023-03-14T21:33:15;5.43;83.93
70928;SHT31;58587;53.034;18.576;2023-03-14T21:35:41;5.32;84.70
70928;SHT31;58587;53.034;18.576;2023-03-14T21:38:06;5.16;85.91
70928;SHT31;58587;53.034;18.576;2023-03-14T21:40:31;5.13;86.15
70928;SHT31;58587;53.034;18.576;2023-03-14T21:42:57;5.05;86.73
70928;SHT31;58587;53.034;18.576;2023-03-14T21:45:24;4.78;84.74
70928;SHT31;58587;53.034;18.576;2023-03-14T21:47:53;4.74;85.92
70928;SHT31;58587;53.034;18.576;2023-03-14T21:50:20;4.54;85.15
70928;SHT31;58587;53.034;18.576;2023-03-14T21:52:48;4.51;85.65
70928;SHT31;58587;53.034;18.576;2023-03-14T21:55:14;4.53;86.52
70928;SHT31;58587;53.034;18.576;2023-03-14T21:57:46;4.37;86.17
70928;SHT31;58587;53.034;18.576;2023-03-14T22:00:14;4.31;86.42
70928;SHT31;58587;53.034;18.576;2023-03-14T22:02:42;4.07;87.03
70928;SHT31;58587;53.034;18.576;2023-03-14T22:05:10;4.11;86.84
70928;SHT31;58587;53.034;18.576;2023-03-14T22:07:38;4.00;87.28
70928;SHT31;58587;53.034;18.576;2023-03-14T22:10:04;3.83;87.62
70928;SHT31;58587;53.034;18.576;2023-03-14T22:12:29;3.85;88.30
